Time;durP1;ratioP1;P1;durP2;ratioP2;P2;SDS_P1;SDS_P2;PMS_P1;PMS_P2;Temp;Humidity;BMP_temperature;BMP_pressure;BME280_temperature;BME280_humidity;BME280_pressure;Samples;Min_cycle;Max_cycle;Signal;HPM_P1;HPM_P2
2021/06/06 00:02:21;;;;;;;76.68;29.85;;;;;;;12.87;100.00;102462.25;5245302;28;20367;-84
2021/06/06 00:04:51;;;;;;;73.80;30.17;;;;;;;12.79;100.00;102463.94;5244960;28;20069;-84
2021/06/06 00:07:22;;;;;;;77.47;31.45;;;;;;;12.69;100.00;102466.63;5244556;28;20063;-85
2021/06/06 00:09:52;;;;;;;82.68;30.38;;;;;;;12.76;100.00;102458.84;5236719;28;20441;-85
2021/06/06 00:12:24;;;;;;;73.00;31.30;;;;;;;12.68;100.00;102462.25;5244590;28;20047;-84
2021/06/06 00:14:55;;;;;;;84.13;31.95;;;;;;;12.65;100.00;102462.50;5244864;28;20082;-85
2021/06/06 00:17:26;;;;;;;75.25;32.67;;;;;;;12.65;100.00;102467.91;5244551;28;20037;-84
2021/06/06 00:19:56;;;;;;;81.57;31.55;;;;;;;12.65;100.00;102470.59;5241686;28;20488;-85
2021/06/06 00:22:27;;;;;;;80.25;33.60;;;;;;;12.67;100.00;102461.41;5244351;28;20020;-84
2021/06/06 00:24:57;;;;;;;70.45;30.23;;;;;;;12.75;100.00;102459.81;5244135;28;20384;-84
2021/06/06 00:27:28;;;;;;;89.60;31.90;;;;;;;12.70;100.00;102458.44;5244579;28;20541;-84
2021/06/06 00:30:00;;;;;;;91.00;34.70;;;;;;;12.73;100.00;102461.81;5244116;28;20462;-85
2021/06/06 00:32:30;;;;;;;87.00;33.08;;;;;;;12.71;100.00;102459.28;5244083;28;20362;-85
2021/06/06 00:35:01;;;;;;;73.68;31.00;;;;;;;12.74;100.00;102460.81;5243421;28;20032;-85
2021/06/06 00:37:32;;;;;;;80.40;31.15;;;;;;;12.76;100.00;102467.78;5243834;28;20099;-84
2021/06/06 00:40:04;;;;;;;87.25;33.90;;;;;;;12.78;100.00;102464.94;5243653;28;20028;-85
2021/06/06 00:42:35;;;;;;;84.10;34.17;;;;;;;12.79;100.00;102463.94;5243969;28;20363;-84
2021/06/06 00:45:10;;;;;;;80.22;33.65;;;;;;;12.78;100.00;102467.63;5233028;28;20028;-84
2021/06/06 00:47:41;;;;;;;89.03;34.33;;;;;;;12.74;100.00;102460.81;5243478;28;20028;-86
2021/06/06 00:50:16;;;;;;;99.03;37.53;;;;;;;12.75;100.00;102465.22;5243645;28;20525;-85
2021/06/06 00:52:50;;;;;;;77.15;31.88;;;;;;;12.81;100.00;102468.22;5243924;28;20033;-85
2021/06/06 00:55:21;;;;;;;80.95;35.20;;;;;;;12.81;100.00;102465.53;5245062;28;20086;-85
2021/06/06 00:57:52;;;;;;;79.43;34.85;;;;;;;12.76;100.00;102459.72;5244627;28;20034;-85
2021/06/06 01:00:33;;;;;;;76.70;34.08;;;;;;;12.79;100.00;102461.25;5244944;28;20216;-85
2021/06/06 01:03:05;;;;;;;72.95;32.47;;;;;;;12.85;100.00;102469.63;5244577;28;20055;-84
2021/06/06 01:05:43;;;;;;;70.57;30.15;;;;;;;12.91;100.00;102468.22;5245414;28;20109;-84
2021/06/06 01:08:16;;;;;;;80.75;32.72;;;;;;;12.85;100.00;102474.16;5242241;28;20025;-85
2021/06/06 01:10:53;;;;;;;68.85;29.83;;;;;;;12.92;100.00;102461.81;5240005;28;20614;-84
2021/06/06 01:13:35;;;;;;;70.15;31.40;;;;;;;12.93;100.00;102463.53;5244553;28;20064;-84
2021/06/06 01:16:10;;;;;;;67.15;28.83;;;;;;;13.01;100.00;102458.28;5244533;28;20443;-84
2021/06/06 01:18:46;;;;;;;71.38;28.55;;;;;;;12.96;100.00;102458.72;5244471;28;20024;-85
2021/06/06 01:21:21;;;;;;;64.63;29.50;;;;;;;12.88;100.00;102453.16;5244666;28;20376;-85
2021/06/06 01:24:17;;;;;;;54.92;26.30;;;;;;;12.91;100.00;102460.13;5244790;28;20035;-85
2021/06/06 01:26:59;;;;;;;63.03;26.65;;;;;;;12.88;100.00;102450.47;5243717;28;20032;-84
2021/06/06 01:29:54;;;;;;;57.97;23.83;;;;;;;12.88;100.00;102447.78;5243129;28;20486;-85
2021/06/06 01:32:26;;;;;;;52.08;24.55;;;;;;;12.87;100.00;102439.84;5242008;28;20024;-85
2021/06/06 01:35:08;;;;;;;52.78;23.02;;;;;;;12.79;100.00;102442.41;5242867;28;20170;-85
2021/06/06 01:37:45;;;;;;;54.88;24.02;;;;;;;12.86;100.00;102446.25;5242786;28;20037;-86
2021/06/06 01:40:21;;;;;;;49.45;25.05;;;;;;;12.84;100.00;102446.38;5242922;28;20024;-85
2021/06/06 01:42:55;;;;;;;51.63;23.33;;;;;;;12.77;100.00;102442.53;5243224;28;20021;-85
2021/06/06 01:45:31;;;;;;;55.92;24.50;;;;;;;12.81;100.00;102433.19;5232266;28;20039;-85
2021/06/06 01:48:07;;;;;;;60.85;26.30;;;;;;;12.79;100.00;102431.63;5242649;28;20120;-85
2021/06/06 01:50:43;;;;;;;60.42;25.08;;;;;;;12.75;100.00;102436.47;5242522;28;20028;-84
2021/06/06 01:53:17;;;;;;;58.13;25.50;;;;;;;12.71;100.00;102432.34;5242554;28;20027;-85
2021/06/06 01:55:53;;;;;;;57.60;26.13;;;;;;;12.69;100.00;102429.78;5242896;28;20028;-84
2021/06/06 01:58:23;;;;;;;;;;;;;;;12.67;100.00;102434.47;5242979;28;20025;-85
2021/06/06 02:00:59;;;;;;;57.15;26.40;;;;;;;12.68;100.00;102443.38;5242478;28;19970;-85
2021/06/06 02:03:30;;;;;;;;;;;;;;;12.72;100.00;102441.28;5243977;28;20031;-85
2021/06/06 02:06:01;;;;;;;49.80;23.45;;;;;;;12.69;100.00;102445.94;5242558;28;19908;-84
2021/06/06 02:08:37;;;;;;;58.13;24.98;;;;;;;12.67;100.00;102442.53;5242662;28;20221;-84
2021/06/06 02:11:22;;;;;;;48.90;24.00;;;;;;;12.66;100.00;102440.84;5228914;28;20024;-84
2021/06/06 02:13:58;;;;;;;50.78;23.95;;;;;;;12.62;100.00;102436.72;5242391;28;20107;-84
2021/06/06 02:16:36;;;;;;;58.33;25.63;;;;;;;12.60;100.00;102427.06;5242217;28;20020;-84
2021/06/06 02:19:07;;;;;;;49.72;24.08;;;;;;;12.60;100.00;102438.72;5242008;28;20274;-84
2021/06/06 02:21:38;;;;;;;57.95;25.02;;;;;;;12.59;100.00;102446.94;5242430;28;20028;-85
2021/06/06 02:24:09;;;;;;;58.78;23.42;;;;;;;12.57;100.00;102443.53;5242135;28;20427;-85
2021/06/06 02:26:40;;;;;;;54.97;24.05;;;;;;;12.58;100.00;102440.69;5242100;28;20479;-85
2021/06/06 02:29:34;;;;;;;49.97;22.73;;;;;;;12.68;100.00;102438.00;5242301;28;20116;-84
2021/06/06 02:32:19;;;;;;;50.83;22.90;;;;;;;12.56;100.00;102437.31;5242182;28;20504;-84
2021/06/06 02:35:03;;;;;;;50.83;22.60;;;;;;;12.56;100.00;102431.06;5242364;28;20082;-85
2021/06/06 02:37:46;;;;;;;49.28;23.80;;;;;;;12.57;100.00;102440.84;5242278;28;20020;-85
2021/06/06 02:40:34;;;;;;;53.05;24.05;;;;;;;12.53;100.00;102434.88;5241026;28;20032;-84
2021/06/06 02:43:13;;;;;;;49.20;23.17;;;;;;;12.54;100.00;102433.88;5242820;28;20017;-85
2021/06/06 02:45:45;;;;;;;56.85;26.38;;;;;;;12.51;100.00;102436.03;5246475;28;20043;-85
2021/06/06 02:48:22;;;;;;;55.28;25.60;;;;;;;12.52;100.00;102441.25;5245955;28;20060;-85
2021/06/06 02:50:58;;;;;;;58.45;27.58;;;;;;;12.48;100.00;102436.28;5245845;28;20029;-85
2021/06/06 02:53:33;;;;;;;61.50;26.63;;;;;;;12.47;100.00;102434.59;5246148;28;20079;-84
2021/06/06 02:56:13;;;;;;;58.20;26.63;;;;;;;12.43;100.00;102432.19;5245845;28;20036;-84
2021/06/06 02:58:49;;;;;;;56.63;26.20;;;;;;;12.44;100.00;102433.03;5245967;28;20035;-85
2021/06/06 03:01:30;;;;;;;61.05;27.45;;;;;;;12.49;100.00;102436.16;5245646;28;20024;-84
2021/06/06 03:04:06;;;;;;;59.03;26.38;;;;;;;12.37;100.00;102439.97;5246363;28;20510;-85
2021/06/06 03:06:47;;;;;;;57.08;26.67;;;;;;;12.30;100.00;102436.13;5246503;28;20160;-85
2021/06/06 03:09:19;;;;;;;64.57;28.17;;;;;;;12.21;100.00;102435.13;5245629;28;20476;-85
2021/06/06 03:11:52;;;;;;;65.60;30.38;;;;;;;12.14;100.00;102432.13;5245920;28;20012;-85
2021/06/06 03:14:27;;;;;;;67.85;30.63;;;;;;;12.08;100.00;102435.38;5245778;28;20044;-85
2021/06/06 03:17:05;;;;;;;73.60;30.13;;;;;;;12.02;100.00;102421.63;5246102;28;20043;-85
2021/06/06 03:19:41;;;;;;;71.93;28.15;;;;;;;11.93;100.00;102426.81;5246416;28;20024;-84
2021/06/06 03:22:19;;;;;;;68.05;30.08;;;;;;;11.85;100.00;102425.84;5246522;28;20395;-85
2021/06/06 03:24:56;;;;;;;69.15;28.27;;;;;;;11.79;100.00;102429.00;5246173;28;20035;-85
2021/06/06 03:27:32;;;;;;;72.40;31.10;;;;;;;11.76;100.00;102432.84;5232512;28;20039;-84
2021/06/06 03:30:06;;;;;;;76.43;32.85;;;;;;;11.68;100.00;102430.81;5244818;28;20044;-84
2021/06/06 03:32:40;;;;;;;66.78;29.90;;;;;;;11.60;100.00;102430.66;5245479;28;20028;-85
2021/06/06 03:35:12;;;;;;;77.07;31.02;;;;;;;11.49;100.00;102433.41;5245327;28;20016;-85
2021/06/06 03:37:42;;;;;;;72.88;30.33;;;;;;;11.39;100.00;102435.19;5245345;28;20040;-85
2021/06/06 03:40:14;;;;;;;63.97;29.08;;;;;;;11.34;100.00;102437.41;5245112;28;20017;-84
2021/06/06 03:42:44;;;;;;;80.65;32.75;;;;;;;11.24;100.00;102437.34;5245001;28;20505;-85
2021/06/06 03:45:15;;;;;;;77.25;32.50;;;;;;;11.17;100.00;102441.56;5245701;28;20391;-85
2021/06/06 03:47:46;;;;;;;77.90;32.13;;;;;;;11.08;100.00;102434.28;5244827;28;20028;-85
2021/06/06 03:50:18;;;;;;;79.53;32.53;;;;;;;11.01;100.00;102431.28;5244858;28;20022;-84
2021/06/06 03:52:48;;;;;;;95.20;35.88;;;;;;;10.94;100.00;102440.81;5244531;28;20032;-84
2021/06/06 03:55:21;;;;;;;86.35;34.72;;;;;;;10.89;100.00;102443.94;5244621;28;20097;-85
2021/06/06 03:57:53;;;;;;;96.00;36.00;;;;;;;10.85;100.00;102438.94;5244936;28;20017;-84
2021/06/06 04:00:29;;;;;;;85.28;33.40;;;;;;;10.84;100.00;102443.47;5259330;28;20145;-85
2021/06/06 04:03:00;;;;;;;93.72;34.90;;;;;;;10.85;100.00;102447.00;5246289;28;20020;-85
2021/06/06 04:05:31;;;;;;;90.15;33.90;;;;;;;10.92;100.00;102453.53;5246797;28;20383;-85
2021/06/06 04:08:04;;;;;;;92.70;33.53;;;;;;;10.87;100.00;102450.38;5246515;28;20029;-84
2021/06/06 04:10:36;;;;;;;85.40;32.95;;;;;;;10.89;100.00;102451.09;5245716;28;20401;-84
2021/06/06 04:13:08;;;;;;;86.60;33.15;;;;;;;10.89;100.00;102451.97;5245860;28;20040;-84
2021/06/06 04:15:39;;;;;;;88.80;32.80;;;;;;;10.93;100.00;102455.22;5246191;28;20070;-84
2021/06/06 04:18:13;;;;;;;88.35;32.60;;;;;;;10.94;100.00;102448.03;5246035;28;20065;-84
2021/06/06 04:20:46;;;;;;;88.27;32.63;;;;;;;10.95;100.00;102453.28;5245905;28;20530;-85
2021/06/06 04:23:17;;;;;;;83.97;31.50;;;;;;;10.94;100.00;102456.94;5245717;28;20031;-84
2021/06/06 04:25:49;;;;;;;85.07;31.83;;;;;;;10.95;100.00;102453.28;5246289;28;20384;-85
2021/06/06 04:28:22;;;;;;;78.13;30.85;;;;;;;10.96;100.00;102454.16;5245908;28;20059;-85
2021/06/06 04:30:53;;;;;;;75.57;29.23;;;;;;;10.98;100.00;102449.47;5245964;28;20092;-85
2021/06/06 04:33:24;;;;;;;78.72;30.40;;;;;;;11.04;100.00;102455.16;5246421;28;20027;-84
2021/06/06 04:35:55;;;;;;;77.47;30.42;;;;;;;11.10;100.00;102441.25;5246287;28;20082;-85
2021/06/06 04:38:28;;;;;;;77.25;29.63;;;;;;;11.19;100.00;102449.47;5245236;28;20024;-84
2021/06/06 04:41:04;;;;;;;74.88;28.70;;;;;;;11.28;100.00;102444.16;5245053;28;20024;-84
2021/06/06 04:43:36;;;;;;;80.15;29.80;;;;;;;11.36;100.00;102444.38;5240025;28;20016;-84
2021/06/06 04:46:07;;;;;;;87.32;32.95;;;;;;;11.47;100.00;102447.97;5237333;28;20408;-84
2021/06/06 04:48:41;;;;;;;68.25;28.33;;;;;;;11.58;100.00;102446.03;5244608;28;20023;-85
2021/06/06 04:51:18;;;;;;;76.35;30.23;;;;;;;11.66;100.00;102440.84;5244117;28;20032;-85
2021/06/06 04:53:50;;;;;;;71.78;28.55;;;;;;;11.85;100.00;102436.59;5244183;28;20104;-85
2021/06/06 04:56:24;;;;;;;76.03;27.83;;;;;;;11.89;100.00;102438.84;5243983;28;20027;-85
2021/06/06 04:58:56;;;;;;;67.32;27.58;;;;;;;11.98;100.00;102442.56;5245071;28;20530;-85
2021/06/06 05:01:26;;;;;;;66.57;29.88;;;;;;;12.03;100.00;102439.47;5244941;28;20029;-84
2021/06/06 05:03:57;;;;;;;59.58;26.70;;;;;;;12.11;100.00;102443.16;5244401;28;20048;-84
2021/06/06 05:06:28;;;;;;;63.58;26.20;;;;;;;12.22;100.00;102435.97;5244519;28;20020;-85
2021/06/06 05:08:58;;;;;;;72.35;29.27;;;;;;;12.28;100.00;102446.19;5244445;28;20012;-83
2021/06/06 05:11:29;;;;;;;68.13;26.85;;;;;;;12.36;100.00;102441.81;5245749;28;20090;-85
2021/06/06 05:14:00;;;;;;;61.83;27.50;;;;;;;12.49;100.00;102436.16;5248927;28;20064;-82
2021/06/06 05:16:31;;;;;;;62.83;27.67;;;;;;;12.57;100.00;102439.00;5251047;28;20044;-81
2021/06/06 05:19:01;;;;;;;67.35;27.73;;;;;;;12.63;100.00;102433.03;5251793;28;20055;-81
2021/06/06 05:21:32;;;;;;;57.58;26.00;;;;;;;12.90;100.00;102436.84;5253183;28;20044;-82
2021/06/06 05:24:04;;;;;;;51.08;25.45;;;;;;;13.87;100.00;102432.09;5251852;28;20020;-82
2021/06/06 05:26:35;;;;;;;42.72;22.25;;;;;;;15.09;100.00;102435.22;5252113;28;20111;-81
2021/06/06 05:29:06;;;;;;;45.15;22.27;;;;;;;16.10;100.00;102438.16;5253561;28;20031;-81
2021/06/06 05:31:37;;;;;;;43.22;20.63;;;;;;;16.98;100.00;102434.97;5253421;28;20024;-82
2021/06/06 05:34:08;;;;;;;39.60;21.58;;;;;;;17.38;100.00;102430.50;5254926;28;20388;-82
2021/06/06 05:36:39;;;;;;;38.20;20.25;;;;;;;17.91;100.00;102439.88;5255267;28;20043;-82
2021/06/06 05:39:10;;;;;;;35.22;19.45;;;;;;;18.86;100.00;102441.34;5254494;28;20040;-82
2021/06/06 05:41:41;;;;;;;36.53;19.42;;;;;;;18.96;100.00;102440.25;5251007;28;20019;-82
2021/06/06 05:44:12;;;;;;;34.63;19.55;;;;;;;19.18;100.00;102444.81;5244071;28;20028;-82
2021/06/06 05:46:43;;;;;;;33.75;19.02;;;;;;;19.36;100.00;102447.19;5244932;28;20020;-83
2021/06/06 05:49:13;;;;;;;31.75;18.70;;;;;;;19.89;100.00;102448.84;5245584;28;20048;-84
2021/06/06 05:51:45;;;;;;;39.38;21.42;;;;;;;19.77;100.00;102449.50;5245150;28;20074;-84
2021/06/06 05:54:15;;;;;;;31.58;19.05;;;;;;;20.08;100.00;102450.13;5244928;28;20472;-84
2021/06/06 05:56:46;;;;;;;35.83;21.15;;;;;;;20.27;100.00;102445.94;5245589;28;20093;-84
2021/06/06 05:59:17;;;;;;;32.65;18.83;;;;;;;20.41;100.00;102441.50;5245588;28;22071;-84
2021/06/06 06:01:47;;;;;;;37.05;20.48;;;;;;;20.41;100.00;102439.59;5246616;28;20115;-84
2021/06/06 06:04:18;;;;;;;38.33;21.27;;;;;;;20.56;100.00;102436.03;5246294;28;20028;-84
2021/06/06 06:06:49;;;;;;;32.13;20.13;;;;;;;20.56;100.00;102441.47;5246370;28;20042;-84
2021/06/06 06:09:19;;;;;;;34.65;20.08;;;;;;;20.47;100.00;102445.34;5246524;28;20039;-84
2021/06/06 06:11:50;;;;;;;38.67;18.65;;;;;;;21.53;100.00;102433.50;5245635;28;20032;-85
2021/06/06 06:14:20;;;;;;;35.60;19.38;;;;;;;21.42;100.00;102442.25;5247423;28;20492;-84
2021/06/06 06:16:51;;;;;;;29.88;17.80;;;;;;;21.69;100.00;102435.09;5245481;28;20515;-84
2021/06/06 06:19:21;;;;;;;35.15;19.25;;;;;;;22.84;87.64;102436.94;5244445;28;20028;-84
2021/06/06 06:21:52;;;;;;;31.55;19.25;;;;;;;22.57;89.30;102436.06;5245127;28;20020;-84
2021/06/06 06:24:22;;;;;;;34.13;19.10;;;;;;;21.52;100.00;102429.06;5245031;28;20032;-84
2021/06/06 06:26:55;;;;;;;31.08;17.55;;;;;;;21.17;93.62;102436.34;5250922;28;20028;-84
2021/06/06 06:29:26;;;;;;;33.80;19.48;;;;;;;20.75;100.00;102443.56;5251309;28;20403;-84
2021/06/06 06:31:57;;;;;;;26.00;15.20;;;;;;;20.88;100.00;102442.81;5249757;28;20024;-84
2021/06/06 06:34:28;;;;;;;29.38;16.67;;;;;;;20.88;100.00;102443.69;5245403;28;20028;-84
2021/06/06 06:36:59;;;;;;;28.40;15.68;;;;;;;20.61;97.68;102442.59;5245003;28;20033;-84
2021/06/06 06:39:29;;;;;;;28.75;16.92;;;;;;;20.37;100.00;102441.03;5244534;28;20094;-84
2021/06/06 06:42:00;;;;;;;28.85;17.02;;;;;;;20.27;100.00;102436.94;5244997;28;20025;-84
2021/06/06 06:44:31;;;;;;;24.48;13.57;;;;;;;20.49;89.92;102440.56;5232887;28;20480;-83
2021/06/06 06:47:02;;;;;;;26.63;14.45;;;;;;;19.99;100.00;102437.66;5244826;28;20051;-84
2021/06/06 06:49:32;;;;;;;26.33;15.73;;;;;;;19.51;100.00;102439.03;5252123;28;20028;-84
2021/06/06 06:52:04;;;;;;;27.45;17.08;;;;;;;19.22;100.00;102440.69;5242473;28;20013;-84
2021/06/06 06:54:34;;;;;;;27.83;15.65;;;;;;;18.91;100.00;102442.69;5242514;28;20113;-84
2021/06/06 06:57:05;;;;;;;22.63;12.98;;;;;;;18.64;100.00;102442.19;5241773;28;20028;-84
2021/06/06 06:59:37;;;;;;;22.00;13.20;;;;;;;18.73;100.00;102430.25;5241902;28;20040;-84
2021/06/06 07:02:08;;;;;;;25.30;13.93;;;;;;;18.24;100.00;102430.53;5241587;28;20111;-84
2021/06/06 07:04:38;;;;;;;23.13;13.55;;;;;;;17.97;100.00;102433.72;5241963;28;20027;-84
2021/06/06 07:07:09;;;;;;;23.88;11.48;;;;;;;17.85;100.00;102431.41;5241854;28;20468;-84
2021/06/06 07:09:39;;;;;;;22.00;12.38;;;;;;;17.47;100.00;102433.03;5241813;28;20035;-83
2021/06/06 07:12:10;;;;;;;21.15;12.23;;;;;;;17.89;100.00;102431.91;5241732;28;20024;-84
2021/06/06 07:14:40;;;;;;;24.25;12.23;;;;;;;17.65;100.00;102427.38;5242247;28;20039;-84
2021/06/06 07:17:11;;;;;;;24.48;11.68;;;;;;;17.29;100.00;102424.25;5242016;28;20089;-84
2021/06/06 07:19:41;;;;;;;19.55;11.10;;;;;;;17.44;100.00;102433.38;5241556;28;20439;-84
2021/06/06 07:22:12;;;;;;;22.95;12.25;;;;;;;17.33;100.00;102431.88;5242783;28;20479;-84
2021/06/06 07:24:42;;;;;;;23.98;12.98;;;;;;;17.66;100.00;102436.34;5249299;28;20039;-84
2021/06/06 07:27:13;;;;;;;23.23;11.95;;;;;;;17.53;100.00;102436.91;5243566;28;20020;-84
2021/06/06 07:29:45;;;;;;;27.98;12.32;;;;;;;17.45;100.00;102442.34;5249091;28;20077;-84
2021/06/06 07:32:15;;;;;;;22.05;12.55;;;;;;;17.22;100.00;102434.06;5250108;28;20021;-84
2021/06/06 07:34:47;;;;;;;21.90;12.55;;;;;;;17.05;100.00;102442.22;5250362;28;20404;-84
2021/06/06 07:37:18;;;;;;;21.80;12.57;;;;;;;17.18;100.00;102444.44;5248691;28;20088;-84
2021/06/06 07:39:49;;;;;;;23.73;13.75;;;;;;;17.47;100.00;102432.16;5247308;28;20488;-84
2021/06/06 07:42:20;;;;;;;20.73;11.70;;;;;;;17.73;100.00;102432.81;5250238;28;20074;-84
2021/06/06 07:44:50;;;;;;;20.17;11.52;;;;;;;17.78;100.00;102440.44;5249275;28;20035;-84
2021/06/06 07:47:21;;;;;;;16.55;10.18;;;;;;;17.85;100.00;102431.41;5251074;28;20035;-84
2021/06/06 07:49:51;;;;;;;17.42;11.10;;;;;;;17.97;100.00;102442.75;5250072;28;20060;-85
2021/06/06 07:52:22;;;;;;;20.90;11.02;;;;;;;18.07;100.00;102446.09;5250295;28;20051;-84
2021/06/06 07:54:53;;;;;;;16.90;10.88;;;;;;;18.15;100.00;102442.47;5248717;28;20071;-84
2021/06/06 07:57:24;;;;;;;21.02;10.43;;;;;;;18.14;100.00;102440.78;5247641;28;20048;-84
2021/06/06 07:59:54;;;;;;;17.00;10.18;;;;;;;18.21;100.00;102444.47;5248954;28;20079;-84
2021/06/06 08:02:25;;;;;;;18.35;11.13;;;;;;;18.12;100.00;102442.81;5249098;28;20021;-84
2021/06/06 08:04:55;;;;;;;20.02;10.75;;;;;;;18.27;100.00;102443.78;5250728;28;20020;-84
2021/06/06 08:07:28;;;;;;;20.75;11.48;;;;;;;18.08;100.00;102439.63;5248486;28;20097;-84
2021/06/06 08:09:59;;;;;;;18.63;10.35;;;;;;;18.21;100.00;102433.59;5251024;28;20032;-84
2021/06/06 08:12:29;;;;;;;18.48;10.45;;;;;;;18.17;100.00;102437.69;5249798;28;20403;-83
2021/06/06 08:15:00;;;;;;;18.35;10.77;;;;;;;18.36;100.00;102434.53;5246151;28;20024;-83
2021/06/06 08:17:31;;;;;;;14.68;8.55;;;;;;;18.53;100.00;102442.59;5246337;28;20020;-83
2021/06/06 08:20:07;;;;;;;17.02;9.05;;;;;;;18.56;100.00;102436.78;5246532;28;20033;-84
2021/06/06 08:22:38;;;;;;;14.18;8.55;;;;;;;18.59;100.00;102439.16;5233342;28;20024;-83
2021/06/06 08:25:11;;;;;;;14.68;8.27;;;;;;;18.83;100.00;102433.56;5246072;28;20173;-83
2021/06/06 08:27:43;;;;;;;17.85;8.57;;;;;;;18.96;100.00;102435.66;5245795;28;20012;-83
2021/06/06 08:30:19;;;;;;;14.65;8.40;;;;;;;19.28;100.00;102436.41;5244632;28;20025;-83
2021/06/06 08:32:51;;;;;;;13.57;8.13;;;;;;;19.35;100.00;102442.78;5245853;28;20031;-84
2021/06/06 08:35:22;;;;;;;16.08;8.15;;;;;;;19.41;100.00;102437.44;5245772;28;20035;-83
2021/06/06 08:37:53;;;;;;;15.90;8.60;;;;;;;19.63;100.00;102443.88;5245580;28;20119;-84
2021/06/06 08:40:32;;;;;;;9.68;6.47;;;;;;;19.57;100.00;102438.28;5230829;28;20032;-84
2021/06/06 08:43:06;;;;;;;12.07;6.80;;;;;;;19.53;100.00;102439.69;5244498;28;20028;-83
2021/06/06 08:45:46;;;;;;;11.30;5.65;;;;;;;19.82;100.00;102441.59;5244673;28;20070;-83
2021/06/06 08:48:20;;;;;;;8.80;5.90;;;;;;;19.95;100.00;102446.38;5244101;28;20036;-84
2021/06/06 08:51:01;;;;;;;9.25;6.30;;;;;;;19.82;99.50;102438.88;5244542;28;20228;-84
2021/06/06 08:53:44;;;;;;;11.18;6.30;;;;;;;19.82;100.00;102436.16;5244383;28;20028;-83
2021/06/06 08:56:21;;;;;;;8.30;5.53;;;;;;;20.00;99.71;102433.03;5244365;28;20103;-83
2021/06/06 08:59:11;;;;;;;8.40;5.13;;;;;;;19.85;91.10;102439.34;5244326;28;20028;-84
2021/06/06 09:01:55;;;;;;;7.65;4.50;;;;;;;20.14;100.00;102432.19;5232974;28;20107;-83
2021/06/06 09:04:29;;;;;;;7.72;4.45;;;;;;;20.17;98.69;102440.78;5246325;28;20082;-83
2021/06/06 09:07:13;;;;;;;6.68;4.63;;;;;;;20.19;88.07;102443.34;5251749;28;20028;-82
2021/06/06 09:09:47;;;;;;;13.15;3.92;;;;;;;20.39;89.65;102441.69;5239870;28;20394;-83
2021/06/06 09:12:21;;;;;;;7.18;4.88;;;;;;;20.16;95.28;102444.56;5244588;28;20072;-83
2021/06/06 09:14:55;;;;;;;7.22;4.30;;;;;;;20.27;97.86;102440.50;5244537;28;20472;-83
2021/06/06 09:17:35;;;;;;;10.90;5.30;;;;;;;20.83;91.87;102434.38;5234642;28;20024;-83
2021/06/06 09:20:29;;;;;;;8.80;4.28;;;;;;;20.86;97.34;102448.50;5243515;28;20036;-83
2021/06/06 09:23:10;;;;;;;7.75;4.30;;;;;;;20.75;88.75;102445.44;5242649;28;20032;-83
2021/06/06 09:25:44;;;;;;;8.43;3.97;;;;;;;20.95;95.97;102435.56;5244825;28;20024;-84
2021/06/06 09:28:22;;;;;;;6.78;3.65;;;;;;;20.88;84.02;102451.88;5243321;28;20017;-84
2021/06/06 09:31:01;;;;;;;8.65;4.38;;;;;;;21.06;84.55;102445.09;5231354;28;20029;-84
2021/06/06 09:33:48;;;;;;;7.03;4.18;;;;;;;21.15;84.27;102452.09;5244599;28;20047;-84
2021/06/06 09:36:20;;;;;;;7.00;3.45;;;;;;;21.35;75.53;102450.41;5246121;28;20040;-83
2021/06/06 09:39:00;;;;;;;4.68;3.38;;;;;;;21.31;76.15;102451.84;5244281;28;20043;-83
2021/06/06 09:41:43;;;;;;;5.43;3.40;;;;;;;21.05;76.06;102441.53;5245334;28;20039;-83
2021/06/06 09:44:13;;;;;;;6.93;3.58;;;;;;;21.37;71.62;102437.38;5245237;28;20060;-83
2021/06/06 09:46:55;;;;;;;8.07;4.38;;;;;;;21.22;69.18;102433.88;5245015;28;20107;-84
2021/06/06 09:49:32;;;;;;;5.20;3.30;;;;;;;21.21;68.33;102445.84;5248947;28;20028;-83
2021/06/06 09:52:27;;;;;;;5.68;3.35;;;;;;;21.49;79.87;102434.97;5247713;28;20021;-84
2021/06/06 09:55:09;;;;;;;3.55;3.10;;;;;;;21.59;73.95;102437.34;5249565;28;20029;-83
2021/06/06 09:57:43;;;;;;;4.15;3.15;;;;;;;21.78;76.84;102435.72;5248952;28;20036;-83
2021/06/06 10:00:14;;;;;;;5.30;3.53;;;;;;;21.82;72.50;102434.28;5250633;28;20041;-83
2021/06/06 10:02:51;;;;;;;6.03;3.80;;;;;;;22.25;89.37;102434.94;5251694;28;20111;-83
2021/06/06 10:05:34;;;;;;;4.30;3.10;;;;;;;22.44;68.13;102438.75;5255010;28;20024;-84
2021/06/06 10:08:23;;;;;;;3.92;3.03;;;;;;;22.71;71.40;102429.56;5255180;28;20032;-83
2021/06/06 10:11:07;;;;;;;6.88;3.20;;;;;;;22.92;65.76;102433.19;5255247;28;20044;-83
2021/06/06 10:13:44;;;;;;;5.95;3.22;;;;;;;23.10;67.07;102430.66;5242125;28;20470;-83
2021/06/06 10:16:18;;;;;;;5.70;3.20;;;;;;;23.14;58.65;102423.69;5256819;28;20017;-83
2021/06/06 10:18:56;;;;;;;7.97;3.05;;;;;;;23.12;62.84;102423.06;5254329;28;20032;-84
2021/06/06 10:21:30;;;;;;;4.55;2.88;;;;;;;23.11;60.48;102420.56;5254823;28;20035;-83
2021/06/06 10:24:19;;;;;;;4.28;2.85;;;;;;;23.04;62.55;102427.91;5271061;28;20276;-83
2021/06/06 10:26:52;;;;;;;7.75;3.00;;;;;;;23.10;62.34;102427.09;5254132;28;20036;-84
2021/06/06 10:29:43;;;;;;;5.28;3.40;;;;;;;23.26;64.56;102413.78;5253804;28;20025;-83
2021/06/06 10:32:30;;;;;;;6.13;3.83;;;;;;;23.16;69.16;102424.34;5254110;28;20047;-83
2021/06/06 10:35:19;;;;;;;6.28;3.58;;;;;;;22.98;64.54;102424.97;5234871;28;20056;-83
2021/06/06 10:37:54;;;;;;;5.13;3.70;;;;;;;22.98;66.97;102422.22;5240548;28;20454;-84
2021/06/06 10:40:32;;;;;;;6.55;3.22;;;;;;;22.91;62.82;102421.41;5232432;28;20025;-84
2021/06/06 10:43:12;;;;;;;6.25;3.47;;;;;;;22.81;62.74;102422.84;5247168;28;20055;-83
2021/06/06 10:45:48;;;;;;;7.60;3.33;;;;;;;22.84;68.79;102409.59;5247747;28;20035;-83
2021/06/06 10:48:28;;;;;;;8.60;3.88;;;;;;;23.15;71.38;102414.44;5248417;28;20039;-84
2021/06/06 10:51:16;;;;;;;5.78;3.60;;;;;;;23.69;62.37;102409.72;5252641;28;20052;-83
2021/06/06 10:53:57;;;;;;;4.93;3.05;;;;;;;23.58;59.61;102413.09;5252502;28;20028;-83
2021/06/06 10:56:47;;;;;;;4.97;3.35;;;;;;;23.46;59.29;102411.03;5268128;28;20029;-81
2021/06/06 10:59:30;;;;;;;7.40;3.70;;;;;;;23.47;58.64;102406.38;5248807;28;20012;-81
2021/06/06 11:02:02;;;;;;;7.22;3.05;;;;;;;22.99;59.62;102409.38;5247596;28;20077;-81
2021/06/06 11:04:49;;;;;;;4.35;2.88;;;;;;;23.24;64.00;102402.22;5236385;28;20029;-82
2021/06/06 11:07:38;;;;;;;6.07;3.35;;;;;;;23.51;58.76;102413.13;5248632;28;20050;-81
2021/06/06 11:10:16;;;;;;;5.20;2.83;;;;;;;23.39;61.54;102404.69;5244798;28;20115;-81
2021/06/06 11:12:49;;;;;;;4.38;3.38;;;;;;;23.65;60.79;102400.25;5256410;28;20040;-81
2021/06/06 11:15:37;;;;;;;6.85;3.38;;;;;;;23.63;62.84;102396.84;5245464;28;20025;-83
2021/06/06 11:18:16;;;;;;;5.32;2.70;;;;;;;23.40;56.90;102400.94;5249277;28;20021;-83
2021/06/06 11:20:59;;;;;;;6.05;3.17;;;;;;;22.92;56.79;102401.19;5234041;28;20412;-83
2021/06/06 11:23:37;;;;;;;4.25;2.13;;;;;;;22.97;59.43;102398.66;5245915;28;20116;-83
2021/06/06 11:26:34;;;;;;;6.85;3.00;;;;;;;23.21;57.01;102388.94;5243064;28;20109;-83
2021/06/06 11:29:19;;;;;;;6.38;3.20;;;;;;;23.64;59.59;102390.34;5245265;28;20020;-83
2021/06/06 11:31:58;;;;;;;6.35;3.60;;;;;;;23.60;57.40;102389.06;5233089;28;20141;-83
2021/06/06 11:34:33;;;;;;;5.72;3.30;;;;;;;23.71;60.55;102391.19;5245273;28;20032;-83
2021/06/06 11:37:08;;;;;;;3.83;2.90;;;;;;;23.72;60.78;102392.84;5250565;28;20024;-83
2021/06/06 11:39:45;;;;;;;4.97;3.20;;;;;;;23.81;55.79;102393.47;5250489;28;20046;-83
2021/06/06 11:42:30;;;;;;;5.30;3.00;;;;;;;23.69;56.92;102394.09;5252106;28;20052;-83